• Join FlightAware (Why Join?)
  • Login
  • US Flag 
03:43AM EST


 

Airport Tracker/Info


-or-


 

Live Flight TrackerFlight Track Log ✈ N233PC ✈ 15-Oct-2013 ✈ MYEF / GGT - KPBI

Flight Track Log - Related Links

Times and Time Zones

All times are in EDT time to prevent confusion due to time zone crossing. See the N233PC flight status page for this flight to view local times or setup timezone preferences in your user account.

Time Position Orientation Groundspeed Altitude Reporting Facility
EDT Latitude Longitude Course Direction KTS MPH feet Rate Location/Type
11:27AM 24.0569 -76.5583 310° West 157 181 5,800  Level Miami Center
11:28AM 24.0842 -76.5858 317° Northwest 138 159 6,200 420 Climbing Miami Center
11:29AM 24.1072 -76.6153 311° West 133 153 6,700 420 Climbing Miami Center
11:30AM 24.1281 -76.6469 306° West 133 153 7,100 420 Climbing Miami Center
11:31AM 24.1492 -76.6789 306° West 127 146 7,600 420 Climbing Miami Center
11:32AM 23.7322 -76.0979 310° West  Level Estimated
11:32AM 24.1742 -76.7064 315° West 127 146 8,000  Level Miami Center
11:33AM 24.1992 -76.7403 309° West 134 154 8,000  Level Miami Center
11:34AM 24.2286 -76.7722 315° West 139 160 8,000  Level Miami Center
11:35AM 24.2600 -76.8064 315° West 144 166 8,000  Level Miami Center
11:36AM 24.2914 -76.8406 315° West 150 173 8,000  Level Miami Center
11:37AM 24.3225 -76.8769 313° West 155 178 8,000  Level Miami Center
11:38AM 24.3539 -76.9114 315° West 160 184 8,000  Level Miami Center
11:39AM 24.3833 -76.9478 312° West 160 184 8,000  Level Miami Center
11:40AM 24.4144 -76.9844 313° West 160 184 8,000  Level Miami Center
11:41AM 24.4439 -77.0186 313° West 160 184 8,000  Level Miami Center
11:42AM 24.4750 -77.0506 317° Northwest 155 178 8,000  Level Miami Center
11:43AM 24.5042 -77.0850 313° West 155 178 8,000  Level Miami Center
11:44AM 24.5378 -77.1239 314° West 155 178 8,000  Level Miami Center
11:45AM 24.5669 -77.1606 311° West 155 178 8,000  Level Miami Center
11:46AM 24.5961 -77.1947 313° West 160 184 8,000  Level Miami Center
11:47AM 24.6272 -77.2292 315° West 160 184 8,000  Level Miami Center
11:48AM 24.6544 -77.2636 311° West 160 184 8,000  Level Miami Center
11:49AM 24.6814 -77.2981 311° West 160 184 8,000  Level Miami Center
11:50AM 24.7128 -77.3300 317° Northwest 160 184 8,000  Level Miami Center
11:51AM 24.7419 -77.3669 311° West 160 184 8,000  Level Miami Center
11:52AM 24.7689 -77.3989 313° West 160 184 8,000  Level Miami Center
11:53AM 24.8003 -77.4333 315° West 160 184 8,000  Level Miami Center
11:54AM 24.8292 -77.4678 313° West 160 184 8,000  Level Miami Center
11:55AM 24.8583 -77.5025 313° West 160 184 8,000  Level Miami Center
11:56AM 24.8875 -77.5369 313° West 160 184 8,000  Level Miami Center
11:57AM 24.9167 -77.5714 313° West 160 184 8,000  Level Miami Center
11:58AM 24.9478 -77.6061 315° West 160 184 8,000  Level Miami Center
11:59AM 24.9769 -77.6406 313° West 160 184 8,000  Level Miami Center
12:00PM 25.0058 -77.6728 315° West 160 184 8,000  Level Miami Center
12:01PM 25.0392 -77.7028 321° Northwest 155 178 8,000  Level Miami Center
12:02PM 25.0725 -77.7331 321° Northwest 150 173 8,000  Level Miami Center
12:03PM 25.1017 -77.7608 319° Northwest 150 173 8,000  Level Miami Center
12:04PM 25.1306 -77.7953 313° West 150 173 8,000  Level Miami Center
12:05PM 25.1597 -77.8300 313° West 150 173 8,000  Level Miami Center
12:06PM 25.1867 -77.8669 309° West 150 173 8,000 -60 Level Miami Center
12:07PM 25.2156 -77.8994 314° West 155 178 7,900 -60 Descending Miami Center
12:08PM 25.2447 -77.9342 313° West 155 178 7,900  Level Miami Center
12:09PM 25.2714 -77.9711 309° West 155 178 7,900  Level Miami Center
12:10PM 25.2964 -78.0081 307° West 155 178 7,900  Level Miami Center
12:11PM 25.3211 -78.0450 307° West 155 178 7,900  Level Miami Center
12:12PM 25.3417 -78.0844 300° West 155 178 7,900  Level Miami Center
12:13PM 25.3644 -78.1236 303° West 150 173 7,900  Level Miami Center
12:14PM 25.3911 -78.1586 310° West 145 167 7,900  Level Miami Center
12:15PM 25.4222 -78.1933 315° West 150 173 7,900  Level Miami Center
12:16PM 25.4511 -78.2281 313° West 156 180 7,900  Level Miami Center
12:17PM 25.4822 -78.2631 315° West 156 180 7,900  Level Miami Center
12:18PM 25.5111 -78.2981 312° West 156 180 7,900  Level Miami Center
12:19PM 25.5422 -78.3306 317° Northwest 156 180 7,900  Level Miami Center
12:20PM 25.5669 -78.3678 306° West 156 180 7,900  Level Miami Center
12:21PM 25.5936 -78.4072 307° West 156 180 7,900  Level Miami Center
12:22PM 25.6097 -78.4489 293° West 150 173 7,900  Level Miami Center
12:23PM 25.6325 -78.4906 301° West 150 173 7,900  Level Miami Center
12:24PM 25.6528 -78.5300 300° West 150 173 7,900  Level Miami Center
12:25PM 25.6711 -78.5742 295° West 150 173 7,900  Level Miami Center
12:26PM 25.6894 -78.6183 295° West 155 178 7,900  Level Miami Center
12:27PM 25.7267 -78.6442 328° Northwest 155 178 7,900  Level Miami Center
12:28PM 25.7514 -78.6675 320° Northwest 150 173 7,900  Level Miami Center
12:29PM 25.7950 -78.7006 326° Northwest 155 178 7,900  Level Miami Center
12:30PM 25.8300 -78.7289 324° Northwest 155 178 7,900  Level Miami Center
12:31PM 25.8758 -78.7503 337° Northwest 155 178 8,000  Climbing Miami Center
12:32PM 25.9067 -78.7786 320° Northwest 155 178 8,000 -60 Level Miami Center
12:33PM 25.9483 -78.8000 335° Northwest 155 178 7,900 -60 Descending Miami Center
12:34PM 25.9750 -78.8375 308° West 155 178 7,900  Level Miami Center
12:35PM 25.9933 -78.8700 302° West 155 178 7,900  Level Miami Center
12:36PM 26.0261 -78.9239 304° West 165 190 7,900  Level Miami Center
12:37PM 26.0483 -78.9681 299° West 171 197 7,900  Level Miami Center
12:38PM 26.0750 -79.0125 304° West 165 190 7,900  Level Miami Center
12:39PM 26.0994 -79.0547 303° West 165 190 7,900 -300 Level Miami Center
12:40PM 26.1300 -79.1039 305° West 172 198 7,400 -420 Descending Miami Center
12:41PM 26.1522 -79.1481 299° West 172 198 7,100 -420 Descending Miami Center
12:42PM 26.1767 -79.1950 300° West 172 198 6,600 -480 Descending Miami Center
12:43PM 26.2050 -79.2464 302° West 172 198 6,200 -600 Descending Miami Center
12:44PM 26.2294 -79.2886 303° West 178 205 5,500 -660 Descending Miami Center
12:45PM 26.2578 -79.3378 303° West 178 205 4,900 -600 Descending Miami Center
12:46PM 26.2861 -79.3894 301° West 183 211 4,300 -540 Descending Miami Center
12:47PM 26.3083 -79.4317 300° West 183 211 3,900 -240 Descending Miami Center
12:48PM 26.3367 -79.4808 303° West 169 194 3,900  Level Miami Center
12:49PM 26.3569 -79.5186 301° West 163 188 3,900  Level Miami Center
12:50PM 26.3833 -79.5631 304° West 163 188 3,900  Level Miami Center
12:51PM 26.4056 -79.6031 302° West 163 188 3,900  Level Miami Center
12:52PM 26.4297 -79.6500 300° West 163 188 3,900 -180 Level Miami Center
12:53PM 26.4497 -79.6922 298° West 163 188 3,600 -420 Descending Miami Center
12:54PM 26.4739 -79.7439 298° West 169 194 3,100 -360 Descending Miami Center
12:55PM 26.4897 -79.7908 291° West 169 194 2,900 -120 Descending Miami Center
12:56PM 26.4989 -79.8444 281° West 169 194 2,900  Level Miami Center
12:57PM 26.5086 -79.8864 285° West 164 189 2,900  Level Miami Center
12:59PM 26.5728 -79.9018 290° West  Level FlightAware Approximate
01:06PM 26.6667 -80.0833 North  Level FlightAware Approximate
01:07PM 26.6832 -80.0956 North  Level Estimated
01:08PM 26.6832 -80.0956 North  Level Estimated
01:09PM 26.6832 -80.0956 North  Level Estimated
01:10PM 26.6832 -80.0956 North  Level Estimated
01:11PM 26.6832 -80.0956 North  Level Estimated
01:12PM 26.6832 -80.0956 North  Level Estimated
01:13PM 26.6832 -80.0956 North  Level Estimated
01:14PM 26.6832 -80.0956 North  Level Estimated
01:15PM 26.6832 -80.0956 North  Level Estimated
01:16PM 26.6832 -80.0956 North  Level Estimated